createdAt,value
2023-04-11T00:00:18.481Z,8.10
2023-04-11T00:03:07.346Z,8.10
2023-04-11T00:05:56.168Z,8.10
2023-04-11T00:08:44.754Z,8.10
2023-04-11T00:11:33.485Z,8.00
2023-04-11T00:14:22.082Z,8.00
2023-04-11T00:17:12.555Z,7.90
2023-04-11T00:20:08.250Z,7.90
2023-04-11T00:22:58.451Z,7.90
2023-04-11T00:25:47.409Z,7.90
2023-04-11T00:28:36.063Z,7.90
2023-04-11T00:31:24.786Z,7.90
2023-04-11T00:34:14.843Z,7.90
2023-04-11T00:37:03.502Z,8.00
2023-04-11T00:39:53.165Z,7.90
2023-04-11T00:42:41.814Z,7.80
2023-04-11T00:45:30.959Z,7.70
2023-04-11T00:48:19.747Z,7.50
2023-04-11T00:51:10.187Z,7.40
2023-04-11T00:53:58.853Z,7.40
2023-04-11T00:56:47.520Z,7.40
2023-04-11T00:59:36.545Z,7.40
2023-04-11T01:02:26.766Z,7.40
2023-04-11T01:05:17.123Z,7.30
2023-04-11T01:08:07.953Z,7.20
2023-04-11T01:10:56.679Z,7.20
2023-04-11T01:13:45.299Z,7.20
2023-04-11T01:16:33.978Z,7.20
2023-04-11T01:19:24.741Z,7.20
2023-04-11T01:22:14.942Z,7.20
2023-04-11T01:25:05.173Z,7.10
2023-04-11T01:27:53.925Z,7.10
2023-04-11T01:30:42.646Z,7.00
2023-04-11T01:33:31.419Z,7.10
2023-04-11T01:36:20.620Z,7.10
2023-04-11T01:39:09.586Z,7.10
2023-04-11T01:42:02.875Z,7.10
2023-04-11T01:44:52.558Z,7.20
2023-04-11T01:47:41.218Z,7.20
2023-04-11T01:50:30.086Z,7.20
2023-04-11T01:53:18.615Z,7.20
2023-04-11T01:56:08.338Z,7.20
2023-04-11T01:58:59.268Z,7.20
2023-04-11T02:01:48.208Z,7.20
2023-04-11T02:04:36.902Z,7.30
2023-04-11T02:07:25.606Z,7.20
2023-04-11T02:10:14.276Z,7.20
2023-04-11T02:13:02.824Z,7.10
2023-04-11T02:15:52.973Z,7.10
2023-04-11T02:18:42.162Z,7.00
2023-04-11T02:21:30.798Z,7.00
2023-04-11T02:24:19.394Z,7.00
2023-04-11T02:27:08.075Z,6.90
2023-04-11T02:29:56.654Z,6.90
2023-04-11T02:32:49.560Z,6.90
2023-04-11T02:35:38.241Z,6.80
2023-04-11T02:38:26.898Z,6.90
2023-04-11T02:41:15.527Z,6.80
2023-04-11T02:44:04.057Z,6.80
2023-04-11T02:46:52.731Z,6.80
2023-04-11T02:49:43.125Z,6.80
2023-04-11T02:52:33.633Z,6.80
2023-04-11T02:55:23.318Z,6.80
2023-04-11T02:58:18.158Z,6.70
2023-04-11T03:01:11.330Z,6.80
2023-04-11T03:04:00.073Z,6.70
2023-04-11T03:06:50.162Z,6.70
2023-04-11T03:09:38.706Z,6.70
2023-04-11T03:12:27.660Z,6.70
2023-04-11T03:15:17.796Z,6.70
2023-04-11T03:18:06.437Z,6.60
2023-04-11T03:20:56.164Z,6.70
2023-04-11T03:23:46.331Z,6.70
2023-04-11T03:26:34.942Z,6.60
2023-04-11T03:29:23.481Z,6.70
2023-04-11T03:32:12.099Z,6.60
2023-04-11T03:35:02.271Z,6.60
2023-04-11T03:37:50.974Z,6.60
2023-04-11T03:40:40.997Z,6.60
2023-04-11T03:43:29.888Z,6.60
2023-04-11T03:46:18.504Z,6.50
2023-04-11T03:49:07.096Z,6.50
2023-04-11T03:51:55.893Z,6.50
2023-04-11T03:54:46.344Z,6.50
2023-04-11T03:57:37.619Z,6.50
2023-04-11T04:00:26.237Z,6.50
2023-04-11T04:03:15.408Z,6.50
2023-04-11T04:06:04.084Z,6.50
2023-04-11T04:08:52.669Z,6.50
2023-04-11T04:11:41.381Z,6.50
2023-04-11T04:14:31.275Z,6.50
2023-04-11T04:17:19.902Z,6.40
2023-04-11T04:20:11.035Z,6.40
2023-04-11T04:23:00.292Z,6.30
2023-04-11T04:25:50.945Z,6.40
2023-04-11T04:28:40.910Z,6.30
2023-04-11T04:31:33.927Z,6.30
2023-04-11T04:34:24.651Z,6.30
2023-04-11T04:37:21.915Z,6.20
2023-04-11T04:40:13.338Z,6.20
2023-04-11T04:43:02.347Z,6.20
2023-04-11T04:45:51.137Z,6.20
2023-04-11T04:48:41.415Z,6.10
2023-04-11T04:51:31.410Z,6.10
2023-04-11T04:54:20.112Z,6.10
2023-04-11T04:57:09.214Z,6.10
2023-04-11T04:59:58.688Z,6.00
2023-04-11T05:02:48.019Z,6.00
2023-04-11T05:05:38.136Z,6.00
2023-04-11T05:08:27.372Z,6.00
2023-04-11T05:11:16.004Z,6.00
2023-04-11T05:14:04.626Z,6.00
2023-04-11T05:16:53.257Z,6.00
2023-04-11T05:19:41.921Z,5.90
2023-04-11T05:22:31.889Z,5.90
2023-04-11T05:25:20.521Z,6.00
2023-04-11T05:28:09.109Z,5.90
2023-04-11T05:30:57.763Z,5.90
2023-04-11T05:33:46.383Z,6.00
2023-04-11T05:36:35.074Z,6.00
2023-04-11T05:39:25.014Z,6.00
2023-04-11T05:42:13.635Z,6.00
2023-04-11T05:45:02.256Z,6.10
2023-04-11T05:47:51.216Z,6.20
2023-04-11T05:50:39.775Z,6.20
2023-04-11T05:53:29.171Z,6.30
2023-04-11T05:56:21.388Z,6.50
2023-04-11T05:59:09.943Z,6.50
2023-04-11T06:01:58.889Z,6.70
2023-04-11T06:04:47.585Z,6.90
2023-04-11T06:07:36.242Z,6.90
2023-04-11T06:10:24.910Z,6.80
2023-04-11T06:13:14.967Z,6.70
2023-04-11T06:16:03.696Z,6.70
2023-04-11T06:18:52.549Z,6.80
2023-04-11T06:21:41.715Z,6.90
2023-04-11T06:24:37.541Z,7.00
2023-04-11T06:27:26.585Z,7.00
2023-04-11T06:30:17.041Z,7.00
2023-04-11T06:33:05.833Z,7.10
2023-04-11T06:35:54.491Z,7.10
2023-04-11T06:38:44.724Z,7.10
2023-04-11T06:41:33.331Z,7.10
2023-04-11T06:44:23.010Z,7.20
2023-04-11T06:51:09.520Z,7.10
2023-04-11T06:53:58.159Z,7.10
2023-04-11T06:56:47.487Z,7.60
2023-04-11T06:59:36.076Z,7.90
2023-04-11T07:02:25.940Z,7.80
2023-04-11T07:05:16.508Z,8.50
2023-04-11T07:08:05.192Z,9.20
2023-04-11T07:10:53.734Z,9.20
2023-04-11T07:13:42.683Z,8.70
2023-04-11T07:16:31.329Z,8.50
2023-04-11T07:19:19.917Z,8.60
2023-04-11T07:22:09.956Z,8.50
2023-04-11T07:24:58.540Z,8.40
2023-04-11T07:27:47.153Z,8.20
2023-04-11T07:30:36.149Z,8.00
2023-04-11T07:33:25.017Z,8.20
2023-04-11T07:36:13.811Z,8.20
2023-04-11T07:39:09.507Z,8.40
2023-04-11T07:41:58.184Z,8.80
2023-04-11T07:44:46.752Z,9.60
2023-04-11T07:47:35.809Z,9.50
2023-04-11T07:50:24.438Z,9.30
2023-04-11T07:53:13.103Z,8.80
2023-04-11T07:56:03.120Z,8.70
2023-04-11T07:58:51.711Z,9.00
2023-04-11T08:01:40.378Z,9.10
2023-04-11T08:04:33.965Z,8.80
2023-04-11T08:07:25.062Z,8.40
2023-04-11T08:10:15.671Z,8.10
2023-04-11T08:13:06.233Z,7.90
2023-04-11T08:15:54.791Z,7.90
2023-04-11T08:18:45.831Z,8.00
2023-04-11T08:21:34.605Z,8.10
2023-04-11T08:24:23.230Z,8.00
2023-04-11T08:27:11.870Z,7.70
2023-04-11T08:30:01.986Z,7.60
2023-04-11T08:32:51.412Z,7.60
2023-04-11T08:35:43.127Z,7.80
2023-04-11T08:38:32.032Z,7.90
2023-04-11T08:41:20.569Z,7.90
2023-04-11T08:44:13.018Z,7.80
2023-04-11T08:47:03.147Z,7.70
2023-04-11T08:49:52.477Z,7.80
2023-04-11T08:52:42.474Z,8.50
2023-04-11T08:55:32.968Z,9.50
2023-04-11T08:58:21.609Z,10.30
2023-04-11T09:01:32.233Z,10.40
2023-04-11T09:04:22.551Z,9.80
2023-04-11T09:07:12.840Z,9.50
2023-04-11T09:10:22.254Z,10.60
2023-04-11T09:13:21.502Z,11.70
2023-04-11T09:16:12.138Z,12.70
2023-04-11T09:19:00.899Z,13.00
2023-04-11T09:21:51.475Z,13.10
2023-04-11T09:24:41.226Z,13.10
2023-04-11T09:27:30.449Z,13.10
2023-04-11T09:30:23.934Z,13.30
2023-04-11T09:33:24.259Z,13.80
2023-04-11T09:36:21.074Z,14.30
2023-04-11T09:39:20.559Z,14.00
2023-04-11T09:42:25.416Z,12.90
2023-04-11T09:45:21.650Z,12.20
2023-04-11T09:48:10.562Z,12.90
2023-04-11T09:50:59.674Z,13.70
2023-04-11T09:53:48.587Z,14.30
2023-04-11T09:56:38.799Z,14.30
2023-04-11T09:59:28.513Z,14.10
2023-04-11T10:02:17.200Z,13.50
2023-04-11T10:05:07.807Z,13.40
2023-04-11T10:08:03.808Z,13.50
2023-04-11T10:10:53.198Z,13.90
2023-04-11T10:13:44.237Z,14.00
2023-04-11T10:16:34.340Z,13.70
2023-04-11T10:19:27.331Z,14.20
2023-04-11T10:23:00.959Z,14.50
2023-04-11T10:25:51.271Z,12.90
2023-04-11T10:28:41.033Z,11.60
2023-04-11T10:31:30.997Z,11.80
2023-04-11T10:34:37.614Z,11.90
2023-04-11T10:37:33.937Z,12.00
2023-04-11T10:40:23.001Z,12.60
2023-04-11T10:43:21.770Z,13.10
2023-04-11T10:46:21.536Z,13.30
2023-04-11T10:49:11.667Z,13.20
2023-04-11T10:52:18.899Z,12.40
2023-04-11T10:55:17.830Z,11.40
2023-04-11T10:58:08.228Z,10.70
2023-04-11T11:01:37.244Z,10.40
2023-04-11T11:04:36.813Z,10.70
2023-04-11T11:07:27.135Z,11.10
2023-04-11T11:10:16.038Z,11.00
2023-04-11T11:13:05.142Z,11.10
2023-04-11T11:15:53.813Z,11.10
2023-04-11T11:18:45.465Z,11.10
2023-04-11T11:21:35.652Z,11.00
2023-04-11T11:24:26.234Z,10.70
2023-04-11T11:27:21.196Z,10.60
2023-04-11T11:30:13.707Z,10.30
2023-04-11T11:33:15.874Z,10.40
2023-04-11T11:36:07.184Z,11.20
2023-04-11T11:38:57.612Z,11.90
2023-04-11T11:41:46.708Z,12.20
2023-04-11T11:44:35.340Z,12.30
2023-04-11T11:47:25.912Z,12.10
2023-04-11T11:50:26.690Z,11.90
2023-04-11T11:53:16.549Z,12.10
2023-04-11T11:56:16.459Z,12.10
2023-04-11T11:59:06.019Z,12.00
2023-04-11T12:01:54.732Z,12.00
2023-04-11T12:04:43.602Z,12.50
2023-04-11T12:07:33.593Z,13.40
2023-04-11T12:10:22.256Z,13.80
2023-04-11T12:13:20.712Z,13.40
2023-04-11T12:16:09.670Z,12.80
2023-04-11T12:18:59.755Z,12.50
2023-04-11T12:21:50.558Z,12.40
2023-04-11T12:24:41.281Z,12.40
2023-04-11T12:27:30.407Z,12.60
2023-04-11T12:30:20.895Z,14.40
2023-04-11T12:33:11.312Z,15.90
2023-04-11T12:36:00.981Z,16.60
2023-04-11T12:38:49.537Z,15.90
2023-04-11T12:41:38.127Z,15.20
2023-04-11T12:44:26.726Z,14.50
2023-04-11T12:47:16.758Z,14.00
2023-04-11T12:50:07.255Z,13.60
2023-04-11T12:52:56.480Z,13.20
2023-04-11T12:55:45.169Z,12.90
2023-04-11T12:58:33.980Z,13.30
2023-04-11T13:01:28.954Z,14.30
2023-04-11T13:04:19.108Z,14.20
2023-04-11T13:07:10.283Z,13.80
2023-04-11T13:09:58.836Z,14.60
2023-04-11T13:12:48.622Z,14.30
2023-04-11T13:15:37.210Z,13.70
2023-04-11T13:18:25.758Z,14.10
2023-04-11T13:21:15.866Z,15.60
2023-04-11T13:24:04.590Z,16.80
2023-04-11T13:26:53.199Z,16.50
2023-04-11T13:29:41.787Z,15.20
2023-04-11T13:32:30.442Z,14.10
2023-04-11T13:35:19.082Z,13.60
2023-04-11T13:38:11.198Z,14.30
2023-04-11T13:41:00.127Z,14.90
2023-04-11T13:43:49.303Z,14.70
2023-04-11T13:46:37.894Z,15.90
2023-04-11T13:49:26.546Z,16.60
2023-04-11T13:52:15.169Z,16.70
2023-04-11T13:55:05.671Z,15.70
2023-04-11T13:57:54.272Z,14.70
2023-04-11T14:00:42.885Z,14.50
2023-04-11T14:03:36.015Z,13.50
2023-04-11T14:06:29.153Z,12.70
2023-04-11T14:09:17.713Z,12.30
2023-04-11T14:12:08.411Z,12.30
2023-04-11T14:14:57.014Z,12.30
2023-04-11T14:17:47.718Z,12.70
2023-04-11T14:20:36.525Z,13.30
2023-04-11T14:23:25.773Z,13.00
2023-04-11T14:26:14.393Z,12.50
2023-04-11T14:29:04.501Z,12.10
2023-04-11T14:31:53.322Z,12.00
2023-04-11T14:34:41.930Z,11.80
2023-04-11T14:37:30.549Z,11.70
2023-04-11T14:40:19.655Z,11.70
2023-04-11T14:43:08.234Z,11.50
2023-04-11T14:45:58.627Z,11.90
2023-04-11T14:48:47.190Z,12.40
2023-04-11T14:51:36.718Z,12.30
2023-04-11T14:54:26.046Z,11.90
2023-04-11T14:57:14.676Z,11.80
2023-04-11T15:00:06.416Z,11.90
2023-04-11T15:02:57.668Z,12.30
2023-04-11T15:05:46.360Z,13.30
2023-04-11T15:08:35.071Z,14.50
2023-04-11T15:11:23.738Z,14.80
2023-04-11T15:14:12.279Z,14.30
2023-04-11T15:17:00.919Z,13.80
2023-04-11T15:19:50.867Z,13.30
2023-04-11T15:22:41.492Z,12.80
2023-04-11T15:25:30.329Z,12.50
2023-04-11T15:28:18.928Z,12.30
2023-04-11T15:31:09.540Z,12.10
2023-04-11T15:34:01.357Z,12.00
2023-04-11T15:36:51.369Z,11.90
2023-04-11T15:39:39.915Z,11.80
2023-04-11T15:42:28.488Z,11.60
2023-04-11T15:45:17.132Z,11.60
2023-04-11T15:48:05.888Z,11.60
2023-04-11T15:50:54.472Z,11.50
2023-04-11T15:53:44.509Z,11.40
2023-04-11T15:56:34.521Z,11.40
2023-04-11T15:59:33.782Z,11.40
2023-04-11T16:02:22.485Z,11.30
2023-04-11T16:05:11.534Z,11.30
2023-04-11T16:08:00.725Z,11.20
2023-04-11T16:10:50.786Z,11.10
2023-04-11T16:13:39.454Z,10.80
2023-04-11T16:16:28.480Z,10.70
2023-04-11T16:19:17.072Z,10.60
2023-04-11T16:22:05.669Z,10.40
2023-04-11T16:24:56.323Z,10.30
2023-04-11T16:27:46.435Z,10.20
2023-04-11T16:30:34.981Z,10.20
2023-04-11T16:33:23.934Z,10.20
2023-04-11T16:36:13.128Z,10.30
2023-04-11T16:39:01.786Z,10.40
2023-04-11T16:41:50.421Z,10.40
2023-04-11T16:44:40.379Z,10.40
2023-04-11T16:47:29.014Z,10.40
2023-04-11T16:50:17.977Z,10.40
2023-04-11T16:53:06.656Z,10.30
2023-04-11T16:55:55.785Z,10.30
2023-04-11T16:58:44.394Z,10.30
2023-04-11T17:01:34.412Z,10.20
2023-04-11T17:04:23.163Z,10.00
2023-04-11T17:07:13.121Z,9.90
2023-04-11T17:10:02.163Z,9.80
2023-04-11T17:12:50.932Z,9.70
2023-04-11T17:15:39.491Z,9.50
2023-04-11T17:18:29.426Z,9.40
2023-04-11T17:21:18.134Z,9.40
2023-04-11T17:24:06.878Z,9.40
2023-04-11T17:26:56.987Z,9.40
2023-04-11T17:29:45.569Z,9.40
2023-04-11T17:32:35.938Z,9.30
2023-04-11T17:35:27.940Z,9.30
2023-04-11T17:38:17.908Z,9.20
2023-04-11T17:41:14.462Z,9.00
2023-04-11T17:44:03.901Z,9.00
2023-04-11T17:46:52.628Z,8.90
2023-04-11T17:49:41.282Z,8.90
2023-04-11T17:52:31.257Z,8.80
2023-04-11T17:55:20.843Z,8.70
2023-04-11T17:58:09.523Z,8.70
2023-04-11T18:00:58.084Z,8.60
2023-04-11T18:03:47.267Z,8.50
2023-04-11T18:06:35.961Z,8.40
2023-04-11T18:09:31.899Z,8.40
2023-04-11T18:12:20.580Z,8.30
2023-04-11T18:15:18.454Z,8.20
2023-04-11T18:18:09.841Z,8.20
2023-04-11T18:21:06.550Z,8.10
2023-04-11T18:23:56.382Z,8.00
2023-04-11T18:26:47.110Z,8.00
2023-04-11T18:29:35.754Z,7.90
2023-04-11T18:32:26.757Z,7.90
2023-04-11T18:35:17.311Z,7.80
2023-04-11T18:38:06.530Z,7.80
2023-04-11T18:40:56.431Z,7.80
2023-04-11T18:43:47.246Z,7.70
2023-04-11T18:46:35.789Z,7.70
2023-04-11T18:49:24.451Z,7.60
2023-04-11T18:52:14.010Z,7.60
2023-04-11T18:55:03.462Z,7.60
2023-04-11T18:57:54.882Z,7.60
2023-04-11T19:00:49.403Z,7.60
2023-04-11T19:03:50.295Z,7.50
2023-04-11T19:06:39.197Z,7.40
2023-04-11T19:09:28.336Z,7.50
2023-04-11T19:12:17.287Z,7.50
2023-04-11T19:15:08.046Z,7.50
2023-04-11T19:17:58.670Z,7.50
2023-04-11T19:20:47.380Z,7.50
2023-04-11T19:23:36.185Z,7.40
2023-04-11T19:26:27.545Z,7.40
2023-04-11T19:29:16.361Z,7.40
2023-04-11T19:32:05.503Z,7.40
2023-04-11T19:34:55.652Z,7.50
2023-04-11T19:37:44.413Z,7.40
2023-04-11T19:40:33.034Z,7.40
2023-04-11T19:43:22.057Z,7.40
2023-04-11T19:46:12.160Z,7.40
2023-04-11T19:49:00.904Z,7.40
2023-04-11T19:51:51.065Z,7.30
2023-04-11T19:54:40.040Z,7.40
2023-04-11T19:57:29.141Z,7.40
2023-04-11T20:00:18.669Z,7.40
2023-04-11T20:03:09.734Z,7.40
2023-04-11T20:05:58.666Z,7.40
2023-04-11T20:08:48.713Z,7.40
2023-04-11T20:11:37.812Z,7.40
2023-04-11T20:14:26.452Z,7.40
2023-04-11T20:17:15.011Z,7.40
2023-04-11T20:20:06.624Z,7.40
2023-04-11T20:22:55.501Z,7.40
2023-04-11T20:25:45.603Z,7.40
2023-04-11T20:28:34.271Z,7.40
2023-04-11T20:31:22.943Z,7.40
2023-04-11T20:34:11.706Z,7.40
2023-04-11T20:37:01.234Z,7.40
2023-04-11T20:39:51.017Z,7.40
2023-04-11T20:42:42.834Z,7.40
2023-04-11T20:45:33.111Z,7.40
2023-04-11T20:48:21.734Z,7.40
2023-04-11T20:51:10.345Z,7.50
2023-04-11T20:53:59.092Z,7.50
2023-04-11T20:56:59.550Z,7.50
2023-04-11T20:59:50.569Z,7.50
2023-04-11T21:02:39.446Z,7.50
2023-04-11T21:05:28.517Z,7.50
2023-04-11T21:08:17.333Z,7.50
2023-04-11T21:11:06.456Z,7.50
2023-04-11T21:13:56.044Z,7.50
2023-04-11T21:16:46.171Z,7.50
2023-04-11T21:19:36.478Z,7.50
2023-04-11T21:22:25.188Z,7.50
2023-04-11T21:25:13.874Z,7.50
2023-04-11T21:28:02.424Z,7.50
2023-04-11T21:30:51.127Z,7.50
2023-04-11T21:33:41.178Z,7.50
2023-04-11T21:36:29.820Z,7.40
2023-04-11T21:39:18.425Z,7.40
2023-04-11T21:42:07.072Z,7.40
2023-04-11T21:44:55.708Z,7.40
2023-04-11T21:47:44.382Z,7.40
2023-04-11T21:50:34.467Z,7.40
2023-04-11T21:53:23.017Z,7.40
2023-04-11T21:56:11.648Z,7.40
2023-04-11T21:59:00.267Z,7.40
2023-04-11T22:01:48.995Z,7.40
2023-04-11T22:04:51.362Z,7.40
2023-04-11T22:07:47.833Z,7.40
2023-04-11T22:10:47.433Z,7.40
2023-04-11T22:13:38.284Z,7.50
2023-04-11T22:16:30.876Z,7.40
2023-04-11T22:19:19.804Z,7.40
2023-04-11T22:22:08.438Z,7.40
2023-04-11T22:24:59.304Z,7.40
2023-04-11T22:27:47.833Z,7.40
2023-04-11T22:30:38.228Z,7.40
2023-04-11T22:33:26.884Z,7.40
2023-04-11T22:36:15.492Z,7.30
2023-04-11T22:39:04.687Z,7.40
2023-04-11T22:41:55.541Z,7.40
2023-04-11T22:44:44.152Z,7.40
2023-04-11T22:47:34.511Z,7.40
2023-04-11T22:50:23.353Z,7.40
2023-04-11T22:53:14.125Z,7.40
2023-04-11T22:56:03.230Z,7.40
2023-04-11T22:58:54.261Z,7.40
2023-04-11T23:01:44.803Z,7.40
2023-04-11T23:04:33.753Z,7.50
2023-04-11T23:07:22.397Z,7.50
2023-04-11T23:10:14.134Z,7.50
2023-04-11T23:13:03.694Z,7.60
2023-04-11T23:15:54.879Z,7.60
2023-04-11T23:18:43.459Z,7.60
2023-04-11T23:21:32.145Z,7.70
2023-04-11T23:24:20.705Z,7.70
2023-04-11T23:27:09.323Z,7.70
2023-04-11T23:29:58.856Z,7.70
2023-04-11T23:32:48.881Z,7.70
2023-04-11T23:35:37.918Z,7.70
2023-04-11T23:38:26.598Z,7.60
2023-04-11T23:41:15.896Z,7.70
2023-04-11T23:44:04.516Z,7.60
2023-04-11T23:46:53.097Z,7.60
2023-04-11T23:49:44.348Z,7.60
2023-04-11T23:52:33.048Z,7.50
2023-04-11T23:55:22.427Z,7.50
2023-04-11T23:58:11.118Z,7.50
